Time;durP1;ratioP1;P1;durP2;ratioP2;P2;SDS_P1;SDS_P2;PMS_P1;PMS_P2;Temp;Humidity;BMP_temperature;BMP_pressure;BME280_temperature;BME280_humidity;BME280_pressure;Samples;Min_cycle;Max_cycle;Signal;HPM_P1;HPM_P2
2023/09/28 00:01:20;;;;;;;11.43;5.40;;;;;;;12.84;100.00;98892.41;5013017;28;20116;-79
2023/09/28 00:03:45;;;;;;;8.90;5.40;;;;;;;12.86;100.00;98897.63;5013042;28;20022;-79
2023/09/28 00:06:11;;;;;;;8.27;5.38;;;;;;;12.67;100.00;98877.66;5012925;28;20037;-78
2023/09/28 00:08:37;;;;;;;8.27;5.82;;;;;;;12.91;100.00;98912.22;5012766;28;20107;-79
2023/09/28 00:11:04;;;;;;;9.25;6.10;;;;;;;12.86;100.00;98912.03;5013000;28;20026;-78
2023/09/28 00:13:29;;;;;;;7.43;4.78;;;;;;;12.66;100.00;98886.84;5012179;28;20033;-78
2023/09/28 00:15:54;;;;;;;7.75;4.57;;;;;;;12.54;100.00;98894.81;5012512;28;20133;-78
2023/09/28 00:18:21;;;;;;;7.43;4.65;;;;;;;12.60;100.00;98931.13;5016740;28;20038;-79
2023/09/28 00:20:48;;;;;;;8.98;5.93;;;;;;;12.34;100.00;98894.91;5008452;28;20038;-79
2023/09/28 00:23:14;;;;;;;8.50;5.82;;;;;;;12.48;100.00;98920.09;5008580;28;20393;-79
2023/09/28 00:25:39;;;;;;;10.25;5.07;;;;;;;12.52;100.00;98915.06;5008571;28;20036;-79
2023/09/28 00:28:06;;;;;;;13.18;5.65;;;;;;;12.56;100.00;98914.44;5023440;28;20410;-79
2023/09/28 00:30:31;;;;;;;8.73;5.32;;;;;;;12.54;100.00;98931.97;5014875;28;20053;-79
2023/09/28 00:32:57;;;;;;;7.82;5.10;;;;;;;12.40;100.00;98915.75;5015542;28;20022;-79
2023/09/28 00:35:23;;;;;;;8.43;5.38;;;;;;;12.47;100.00;98913.00;5012577;28;20088;-78
2023/09/28 00:37:49;;;;;;;9.35;5.75;;;;;;;12.55;100.00;98933.63;4995823;28;20031;-79
2023/09/28 00:40:27;;;;;;;10.77;6.20;;;;;;;12.58;100.00;98935.94;5038434;23;20040;-58
2023/09/28 00:42:54;;;;;;;11.20;6.00;;;;;;;12.68;100.00;98936.31;5005641;28;20539;-60
2023/09/28 00:45:22;;;;;;;11.82;5.30;;;;;;;12.66;100.00;98941.97;5005628;28;20026;-60
2023/09/28 00:47:55;;;;;;;7.78;6.00;;;;;;;12.69;100.00;98943.44;5028843;28;20061;-60
2023/09/28 00:50:21;;;;;;;7.95;5.80;;;;;;;12.72;100.00;98960.13;5010376;28;20108;-60
2023/09/28 00:52:57;;;;;;;10.48;6.03;;;;;;;12.74;100.00;98959.91;4987262;28;20501;-60
2023/09/28 00:55:23;;;;;;;9.18;6.00;;;;;;;12.70;100.00;98964.91;4997790;28;20101;-60
2023/09/28 00:57:50;;;;;;;7.72;5.63;;;;;;;12.66;100.00;98962.88;4992698;28;20614;-60
2023/09/28 01:00:26;;;;;;;8.40;6.13;;;;;;;12.69;100.00;98968.69;4986749;28;20045;-60
2023/09/28 01:02:53;;;;;;;11.77;6.32;;;;;;;12.75;100.00;98977.03;4979118;28;20076;-60
2023/09/28 01:05:27;;;;;;;9.55;6.00;;;;;;;12.82;100.00;98975.97;4988020;28;20454;-60
2023/09/28 01:07:55;;;;;;;9.80;6.22;;;;;;;12.90;100.00;98989.31;4990606;28;20373;-60
2023/09/28 01:10:23;;;;;;;11.60;6.47;;;;;;;12.90;100.00;98978.44;4989584;28;20386;-60
2023/09/28 01:12:49;;;;;;;9.43;5.85;;;;;;;12.73;100.00;98966.38;4986156;28;20034;-59
2023/09/28 01:15:16;;;;;;;6.82;5.18;;;;;;;12.54;100.00;98965.38;4989662;28;20109;-60
2023/09/28 01:17:42;;;;;;;7.15;5.10;;;;;;;12.37;100.00;98956.88;4987174;28;20076;-60
2023/09/28 01:20:18;;;;;;;8.52;5.88;;;;;;;12.29;100.00;98959.81;4996888;28;20521;-60
2023/09/28 01:22:45;;;;;;;10.57;5.57;;;;;;;12.28;100.00;98964.38;4983622;28;20032;-60
2023/09/28 01:25:11;;;;;;;9.43;5.65;;;;;;;12.33;100.00;98963.75;4989977;28;20022;-60
2023/09/28 01:27:36;;;;;;;8.68;5.90;;;;;;;12.39;100.00;98962.06;4986119;28;20129;-61
2023/09/28 01:30:05;;;;;;;11.25;6.80;;;;;;;12.39;100.00;98968.34;4989340;28;20385;-61
2023/09/28 01:32:32;;;;;;;7.78;6.13;;;;;;;12.38;100.00;98971.25;4995893;28;20160;-60
2023/09/28 01:34:57;;;;;;;9.13;6.35;;;;;;;12.41;100.00;98971.66;4982148;28;20050;-60
2023/09/28 01:37:32;;;;;;;10.90;6.50;;;;;;;12.39;100.00;98972.91;4988919;28;20026;-60
2023/09/28 01:39:57;;;;;;;8.15;6.35;;;;;;;12.43;100.00;98968.75;4986200;28;20028;-59
2023/09/28 01:42:22;;;;;;;11.48;6.85;;;;;;;12.42;100.00;98967.09;4985743;28;20026;-60
2023/09/28 01:44:48;;;;;;;9.10;6.30;;;;;;;12.46;100.00;98963.72;4985604;28;20026;-61
2023/09/28 01:47:13;;;;;;;9.20;5.60;;;;;;;12.47;100.00;98965.41;4988676;28;20037;-60
2023/09/28 01:49:38;;;;;;;9.43;6.38;;;;;;;12.49;100.00;98971.44;4982626;28;20035;-60
2023/09/28 01:52:04;;;;;;;8.02;5.57;;;;;;;12.50;100.00;98969.56;4985972;28;20104;-60
2023/09/28 01:54:29;;;;;;;9.30;5.55;;;;;;;12.50;100.00;98970.41;4989511;28;20118;-60
2023/09/28 01:56:54;;;;;;;7.78;5.55;;;;;;;12.47;100.00;98964.56;4991974;28;20022;-60
2023/09/28 01:59:20;;;;;;;8.40;5.13;;;;;;;12.39;100.00;98967.50;4990508;28;20026;-60
2023/09/28 02:01:45;;;;;;;7.82;5.18;;;;;;;12.35;100.00;98964.38;4982642;28;20122;-60
2023/09/28 02:04:11;;;;;;;9.30;5.95;;;;;;;12.34;100.00;98959.16;4998914;28;20033;-60
2023/09/28 02:06:36;;;;;;;9.70;5.88;;;;;;;12.38;100.00;98972.09;4982951;28;20034;-60
2023/09/28 02:09:03;;;;;;;10.10;6.72;;;;;;;12.48;100.00;98972.50;5001789;28;20049;-60
2023/09/28 02:11:29;;;;;;;8.88;6.13;;;;;;;12.54;100.00;98978.13;4976429;28;20034;-60
2023/09/28 02:13:54;;;;;;;10.82;6.20;;;;;;;12.48;100.00;98969.78;4984791;28;20031;-60
2023/09/28 02:16:19;;;;;;;8.98;6.40;;;;;;;12.50;100.00;98964.97;4985353;28;20122;-60
2023/09/28 02:18:46;;;;;;;9.10;5.88;;;;;;;12.48;100.00;98968.94;4985144;28;20032;-60
2023/09/28 02:21:14;;;;;;;10.85;6.30;;;;;;;12.40;100.00;98959.16;4985631;28;20034;-60
2023/09/28 02:23:43;;;;;;;9.43;6.30;;;;;;;12.33;100.00;98962.91;4990864;28;20394;-60
2023/09/28 02:26:08;;;;;;;11.02;6.80;;;;;;;12.31;100.00;98954.97;4984125;28;20442;-60
2023/09/28 02:28:33;;;;;;;9.52;5.95;;;;;;;12.34;100.00;98957.28;5008083;28;20061;-60
2023/09/28 02:31:06;;;;;;;11.45;6.32;;;;;;;12.29;100.00;98954.38;4986852;28;20489;-60
2023/09/28 02:33:32;;;;;;;13.57;6.45;;;;;;;12.42;100.00;98959.78;4999708;28;20045;-60
2023/09/28 02:35:58;;;;;;;10.55;5.88;;;;;;;12.37;100.00;98964.19;5002670;28;20073;-60
2023/09/28 02:38:23;;;;;;;10.82;6.35;;;;;;;12.37;100.00;98980.47;4990925;28;20105;-60
2023/09/28 02:40:49;;;;;;;8.57;5.78;;;;;;;12.31;100.00;98975.84;4987114;28;20018;-60
2023/09/28 02:43:14;;;;;;;8.85;5.15;;;;;;;12.25;100.00;98972.09;4997029;28;20467;-60
2023/09/28 02:45:39;;;;;;;7.63;5.68;;;;;;;12.25;100.00;98972.09;4987652;28;20094;-60
2023/09/28 02:48:05;;;;;;;9.48;5.82;;;;;;;12.30;100.00;98974.19;4994803;28;20014;-60
2023/09/28 02:50:30;;;;;;;10.02;6.20;;;;;;;12.30;100.00;98976.91;4989694;28;20058;-60
2023/09/28 02:52:56;;;;;;;10.05;6.03;;;;;;;12.24;100.00;98975.88;4986168;28;20110;-60
2023/09/28 02:55:21;;;;;;;11.45;6.30;;;;;;;12.24;100.00;98982.13;4986577;28;20069;-60
2023/09/28 02:57:47;;;;;;;10.88;6.18;;;;;;;12.36;100.00;98995.03;5004241;28;20072;-60
2023/09/28 03:02:42;;;;;;;11.30;6.47;;;;;;;12.38;100.00;98993.78;4983982;28;20033;-60
2023/09/28 03:05:07;;;;;;;10.48;6.25;;;;;;;12.41;100.00;98987.94;4985733;28;20049;-60
2023/09/28 03:07:34;;;;;;;10.27;6.32;;;;;;;12.38;100.00;98991.06;4999606;28;20034;-61
2023/09/28 03:09:59;;;;;;;11.95;6.50;;;;;;;12.38;100.00;98999.22;4985681;28;20026;-60
2023/09/28 03:12:24;;;;;;;8.88;6.38;;;;;;;12.37;100.00;98999.44;4988246;28;20078;-60
2023/09/28 03:14:50;;;;;;;10.25;6.70;;;;;;;12.37;100.00;98996.72;4982922;28;20394;-60
2023/09/28 03:17:15;;;;;;;8.93;6.50;;;;;;;12.36;100.00;99000.47;4985286;28;20062;-60
2023/09/28 03:19:40;;;;;;;8.93;5.88;;;;;;;12.39;100.00;99006.34;5007989;28;20117;-60
2023/09/28 03:22:06;;;;;;;8.63;5.80;;;;;;;12.39;100.00;99005.47;4991862;28;20245;-60
2023/09/28 03:24:31;;;;;;;10.75;6.43;;;;;;;12.45;100.00;99010.09;4989945;28;20038;-60
2023/09/28 03:26:57;;;;;;;8.65;5.93;;;;;;;12.38;100.00;99020.94;5002406;28;20030;-60
2023/09/28 03:29:22;;;;;;;7.72;5.40;;;;;;;12.32;100.00;99020.94;4994149;28;20525;-60
2023/09/28 03:31:47;;;;;;;12.35;6.60;;;;;;;12.34;100.00;99021.53;4985208;28;20026;-60
2023/09/28 03:34:13;;;;;;;10.43;5.65;;;;;;;12.37;100.00;99016.56;4980895;28;20034;-60
2023/09/28 03:36:38;;;;;;;9.13;6.07;;;;;;;12.39;100.00;99005.47;4990860;28;20030;-60
2023/09/28 03:39:03;;;;;;;9.20;6.53;;;;;;;12.35;100.00;99005.06;4994046;28;20025;-60
2023/09/28 03:41:29;;;;;;;9.63;6.32;;;;;;;12.21;100.00;98992.56;4985904;28;20034;-60
2023/09/28 03:43:54;;;;;;;13.38;6.40;;;;;;;12.35;100.00;99005.06;4989619;28;20029;-60
2023/09/28 03:46:20;;;;;;;13.63;6.53;;;;;;;12.41;100.00;99006.94;4991112;28;20054;-60
2023/09/28 03:48:46;;;;;;;10.20;6.60;;;;;;;12.45;100.00;99007.38;4987428;28;20121;-61
2023/09/28 03:51:11;;;;;;;8.23;6.00;;;;;;;12.39;100.00;99000.91;4985072;28;20109;-60
2023/09/28 03:53:40;;;;;;;8.00;6.00;;;;;;;12.26;100.00;99006.31;4997579;28;20038;-60
2023/09/28 03:56:06;;;;;;;9.18;5.97;;;;;;;12.24;100.00;99009.25;4998359;28;20109;-60
2023/09/28 03:58:31;;;;;;;8.68;6.05;;;;;;;12.27;100.00;99002.56;4982167;28;20457;-61
2023/09/28 04:00:58;;;;;;;9.32;6.50;;;;;;;12.28;100.00;99002.34;4991774;28;20053;-61
2023/09/28 04:03:24;;;;;;;10.50;6.22;;;;;;;12.32;100.00;99004.66;4986893;28;20030;-60
2023/09/28 04:05:49;;;;;;;9.10;5.85;;;;;;;12.28;100.00;99010.50;4991000;28;20525;-60
2023/09/28 04:08:15;;;;;;;10.93;5.95;;;;;;;12.34;100.00;99019.69;4981210;28;20033;-61
2023/09/28 04:10:41;;;;;;;8.70;5.93;;;;;;;12.42;100.00;99024.91;4993836;28;20030;-61
2023/09/28 04:13:07;;;;;;;14.30;6.03;;;;;;;12.48;100.00;99026.75;4984688;28;20030;-60
2023/09/28 04:15:32;;;;;;;8.65;6.15;;;;;;;12.55;100.00;99028.63;4987661;28;20049;-60
2023/09/28 04:17:57;;;;;;;10.80;6.15;;;;;;;12.55;100.00;99026.78;4983482;28;20474;-60
2023/09/28 04:20:23;;;;;;;8.27;6.13;;;;;;;12.53;100.00;99028.03;4985975;28;20398;-61
2023/09/28 04:22:49;;;;;;;11.52;6.28;;;;;;;12.52;100.00;99024.47;4985743;28;20050;-59
2023/09/28 04:25:15;;;;;;;12.00;6.00;;;;;;;12.55;100.00;99023.19;4991785;28;20018;-61
2023/09/28 04:27:40;;;;;;;10.13;5.43;;;;;;;12.56;100.00;99024.88;4993401;28;20048;-61
2023/09/28 04:30:06;;;;;;;8.85;6.13;;;;;;;12.71;100.00;99025.50;4989259;28;20030;-61
2023/09/28 04:32:32;;;;;;;10.85;5.20;;;;;;;12.62;100.00;99021.31;4988687;28;20034;-60
2023/09/28 04:34:57;;;;;;;9.82;5.22;;;;;;;12.58;100.00;99014.66;4984838;28;20118;-61
2023/09/28 04:37:25;;;;;;;7.32;5.40;;;;;;;12.53;100.00;99025.31;4990931;28;20033;-61
2023/09/28 04:39:50;;;;;;;7.90;5.13;;;;;;;12.46;100.00;99018.00;4991775;28;20022;-60
2023/09/28 04:42:16;;;;;;;10.73;5.07;;;;;;;12.40;100.00;99021.56;4991533;28;20033;-60
2023/09/28 04:44:43;;;;;;;7.70;4.85;;;;;;;12.35;100.00;99020.53;4982991;28;20136;-60
2023/09/28 04:47:10;;;;;;;15.10;5.80;;;;;;;12.31;100.00;99008.41;4988861;28;20041;-60
2023/09/28 04:49:44;;;;;;;9.30;5.72;;;;;;;12.48;100.00;99018.63;4983232;28;20035;-61
2023/09/28 04:52:10;;;;;;;11.35;5.78;;;;;;;12.47;100.00;99016.97;4996968;28;20021;-60
2023/09/28 04:54:51;;;;;;;8.05;4.72;;;;;;;12.49;100.00;99009.44;4989591;28;20517;-60
2023/09/28 04:57:19;;;;;;;11.07;5.50;;;;;;;12.37;100.00;99008.41;4990663;28;20026;-61
2023/09/28 04:59:45;;;;;;;7.53;5.60;;;;;;;12.28;100.00;99020.50;4988786;28;20077;-61
2023/09/28 05:02:19;;;;;;;8.20;5.75;;;;;;;12.28;100.00;99032.19;4984849;28;20066;-61
2023/09/28 05:04:44;;;;;;;8.45;5.95;;;;;;;12.25;100.00;99029.06;4984596;28;20029;-60
2023/09/28 05:07:09;;;;;;;8.10;6.00;;;;;;;12.29;100.00;99038.47;5006361;28;20388;-61
2023/09/28 05:09:35;;;;;;;9.88;5.28;;;;;;;12.30;100.00;99050.97;4991376;28;20038;-61
2023/09/28 05:12:01;;;;;;;10.45;5.70;;;;;;;12.35;100.00;99048.47;4992642;28;20022;-61
2023/09/28 05:14:27;;;;;;;10.13;5.70;;;;;;;12.25;100.00;99042.63;4981740;28;20399;-60
2023/09/28 05:16:54;;;;;;;7.75;5.22;;;;;;;12.19;100.00;99046.19;4975859;28;20017;-61
2023/09/28 05:19:21;;;;;;;8.65;5.90;;;;;;;12.13;100.00;99038.88;4979094;28;20046;-61
2023/09/28 05:21:47;;;;;;;9.00;5.80;;;;;;;12.14;100.00;99044.09;4986855;28;20023;-59
2023/09/28 05:24:13;;;;;;;7.72;5.65;;;;;;;12.17;100.00;99032.00;4978105;28;20018;-61
2023/09/28 05:26:38;;;;;;;8.48;6.50;;;;;;;12.19;100.00;99038.88;5001018;28;20042;-59
2023/09/28 05:29:03;;;;;;;17.17;6.25;;;;;;;12.23;100.00;99042.00;5008464;28;20359;-58
2023/09/28 05:31:29;;;;;;;9.80;5.97;;;;;;;12.25;100.00;99031.78;4988952;28;20018;-59
2023/09/28 05:33:54;;;;;;;8.07;5.68;;;;;;;12.42;100.00;99037.66;4990744;28;20030;-59
2023/09/28 05:36:20;;;;;;;10.23;6.53;;;;;;;12.50;100.00;99053.72;4978617;28;20030;-59
2023/09/28 05:38:46;;;;;;;10.52;6.32;;;;;;;12.59;100.00;99048.88;4986984;28;20113;-61
2023/09/28 05:41:12;;;;;;;9.35;5.63;;;;;;;12.69;100.00;99050.13;4981613;28;20110;-61
2023/09/28 05:43:37;;;;;;;9.98;5.28;;;;;;;12.80;100.00;99056.78;4986198;28;20393;-65
2023/09/28 05:46:03;;;;;;;7.88;5.32;;;;;;;12.84;100.00;99055.34;4981113;28;20030;-61
2023/09/28 05:48:29;;;;;;;9.48;6.18;;;;;;;12.80;100.00;99051.34;4989136;28;20390;-61
2023/09/28 05:50:55;;;;;;;8.38;5.70;;;;;;;12.79;100.00;99057.84;5005782;28;20034;-61
2023/09/28 05:53:20;;;;;;;8.40;5.50;;;;;;;12.82;100.00;99062.03;4985307;28;20031;-61
2023/09/28 05:55:47;;;;;;;9.73;5.82;;;;;;;12.81;100.00;99077.47;4982509;28;20034;-61
2023/09/28 05:58:12;;;;;;;9.60;5.90;;;;;;;12.70;100.00;99083.53;4985908;28;20379;-61
2023/09/28 06:00:39;;;;;;;8.65;5.38;;;;;;;12.69;100.00;99090.84;4984360;28;20031;-61
2023/09/28 06:03:04;;;;;;;9.57;5.85;;;;;;;12.69;100.00;99079.16;4992357;28;20042;-61
2023/09/28 06:05:31;;;;;;;7.88;5.57;;;;;;;12.70;100.00;99086.25;4986422;28;20031;-61
2023/09/28 06:07:58;;;;;;;11.38;6.05;;;;;;;12.72;100.00;99100.44;4975335;28;20019;-59
2023/09/28 06:10:23;;;;;;;8.43;5.78;;;;;;;12.79;100.00;99104.00;4990517;28;20018;-59
2023/09/28 06:12:48;;;;;;;14.75;6.20;;;;;;;12.86;100.00;99096.69;4981340;28;20045;-61
2023/09/28 06:15:14;;;;;;;21.33;6.13;;;;;;;12.97;100.00;99088.91;4986695;28;20026;-58
2023/09/28 06:17:39;;;;;;;6.85;5.30;;;;;;;13.05;100.00;99086.00;4989784;28;20126;-59
2023/09/28 06:20:07;;;;;;;9.25;5.82;;;;;;;13.14;100.00;99084.72;4980297;28;20065;-59
2023/09/28 06:22:33;;;;;;;12.50;5.43;;;;;;;13.27;100.00;99075.72;4988053;28;20077;-59
2023/09/28 06:24:58;;;;;;;7.85;5.38;;;;;;;13.39;100.00;99076.75;4991881;28;20026;-58
2023/09/28 06:27:25;;;;;;;7.30;4.90;;;;;;;13.56;100.00;99061.59;4976019;28;20051;-59
2023/09/28 06:29:53;;;;;;;10.95;5.25;;;;;;;13.80;100.00;99070.88;4992747;28;20034;-59
2023/09/28 06:32:19;;;;;;;10.48;5.20;;;;;;;14.08;100.00;99060.69;4991427;28;20029;-59
2023/09/28 06:34:45;;;;;;;8.98;4.65;;;;;;;14.43;100.00;99058.31;4986735;28;20023;-58
2023/09/28 06:37:10;;;;;;;5.70;4.00;;;;;;;15.14;100.00;99048.84;4985907;28;20053;-59
2023/09/28 06:39:37;;;;;;;7.03;4.32;;;;;;;15.84;100.00;99042.97;4982954;28;20113;-58
2023/09/28 06:42:04;;;;;;;6.82;4.57;;;;;;;16.15;100.00;99035.59;5019526;23;20136;-58
2023/09/28 06:44:30;;;;;;;11.80;4.88;;;;;;;16.57;100.00;99036.34;5037891;28;20120;-58
2023/09/28 06:46:57;;;;;;;6.78;4.53;;;;;;;16.58;100.00;99039.91;5044263;28;20170;-59
2023/09/28 06:49:22;;;;;;;11.10;4.35;;;;;;;16.70;100.00;99046.22;5037770;28;20120;-57
2023/09/28 06:51:49;;;;;;;11.65;4.47;;;;;;;16.81;100.00;99041.84;5035018;28;20112;-56
2023/09/28 06:54:15;;;;;;;6.65;4.15;;;;;;;16.74;100.00;99047.41;5035354;28;20025;-57
2023/09/28 06:56:40;;;;;;;11.85;5.03;;;;;;;16.98;100.00;99050.19;5032257;28;20033;-57
2023/09/28 06:59:07;;;;;;;6.90;3.38;;;;;;;17.38;100.00;99052.94;5029237;28;20346;-63
2023/09/28 07:01:33;;;;;;;9.57;4.20;;;;;;;17.05;100.00;99053.59;5032903;28;20115;-63
2023/09/28 07:03:59;;;;;;;13.45;4.32;;;;;;;16.78;100.00;99056.81;5032853;28;20021;-64
2023/09/28 07:06:24;;;;;;;7.25;3.50;;;;;;;17.06;100.00;99058.84;5033223;28;20040;-63
2023/09/28 07:08:50;;;;;;;9.02;4.70;;;;;;;17.43;100.00;99054.97;5023814;28;20049;-63
2023/09/28 07:11:15;;;;;;;10.07;3.70;;;;;;;17.96;100.00;99049.19;5026635;28;20070;-56
2023/09/28 07:13:41;;;;;;;12.90;4.68;;;;;;;20.72;100.00;99034.69;5025432;28;20381;-57
2023/09/28 07:16:07;;;;;;;9.75;3.72;;;;;;;24.17;100.00;99032.66;5023308;28;20030;-57
2023/09/28 07:18:33;;;;;;;6.22;3.35;;;;;;;26.41;94.42;99031.28;5017699;28;20030;-64
2023/09/28 07:20:59;;;;;;;9.10;3.38;;;;;;;26.34;87.88;99028.88;5031109;28;20393;-64
2023/09/28 07:23:24;;;;;;;10.30;3.92;;;;;;;26.02;86.58;99027.69;5017754;28;20048;-64
2023/09/28 07:25:51;;;;;;;7.88;3.55;;;;;;;26.44;78.97;99023.16;5027758;28;20113;-57
2023/09/28 07:28:16;;;;;;;5.80;3.13;;;;;;;26.24;77.38;99026.25;5030546;28;20397;-58
2023/09/28 07:30:42;;;;;;;8.52;3.25;;;;;;;25.11;89.03;99029.63;5017804;28;20044;-63
2023/09/28 07:33:07;;;;;;;4.72;2.95;;;;;;;25.18;96.82;99030.16;5027468;28;20461;-63
2023/09/28 07:35:33;;;;;;;14.25;6.45;;;;;;;29.34;69.94;99044.09;5028616;28;20117;-59
2023/09/28 07:37:59;;;;;;;10.77;4.43;;;;;;;32.63;54.09;99045.66;5030849;28;20151;-59
2023/09/28 07:40:27;;;;;;;11.38;4.18;;;;;;;30.14;57.72;99044.00;5023156;28;20034;-60
2023/09/28 07:42:52;;;;;;;9.80;4.75;;;;;;;27.08;66.53;99048.41;5026500;28;20417;-60
2023/09/28 07:45:18;;;;;;;7.32;3.35;;;;;;;25.12;82.25;99054.25;5024439;28;20029;-62
2023/09/28 07:47:44;;;;;;;10.30;3.33;;;;;;;24.10;100.00;99074.44;5026151;28;20030;-63
2023/09/28 07:50:14;;;;;;;6.05;3.38;;;;;;;25.82;99.30;99065.94;5037281;28;20040;-63
2023/09/28 07:52:43;;;;;;;6.32;3.13;;;;;;;29.42;70.01;99067.56;5026749;28;20116;-65
2023/09/28 07:55:09;;;;;;;5.88;2.90;;;;;;;31.52;59.42;99070.09;5033048;28;20034;-65
2023/09/28 07:57:35;;;;;;;6.22;2.67;;;;;;;32.90;54.32;99055.41;5024422;28;20346;-65
2023/09/28 08:00:01;;;;;;;5.70;2.60;;;;;;;33.33;51.55;99052.16;5028471;28;20040;-65
2023/09/28 08:02:27;;;;;;;5.63;3.20;;;;;;;33.73;50.63;99059.91;5021383;28;20049;-65
2023/09/28 08:04:53;;;;;;;5.43;2.70;;;;;;;33.60;49.51;99061.91;5021608;28;20441;-65
2023/09/28 08:07:19;;;;;;;5.13;2.60;;;;;;;33.54;49.63;99059.69;5027370;28;20350;-65
2023/09/28 08:09:47;;;;;;;9.07;3.00;;;;;;;33.74;49.30;99066.31;5025036;28;20026;-65
2023/09/28 08:12:13;;;;;;;7.67;2.97;;;;;;;33.70;48.53;99057.81;5029955;28;20055;-65
2023/09/28 08:14:38;;;;;;;5.10;2.80;;;;;;;34.01;48.44;99054.38;5031123;28;20071;-65
2023/09/28 08:17:04;;;;;;;4.63;2.75;;;;;;;36.42;42.80;99039.84;5027979;28;20029;-65
2023/09/28 08:19:29;;;;;;;5.03;2.50;;;;;;;36.17;41.08;99044.94;5038634;28;20053;-66
2023/09/28 08:21:55;;;;;;;7.20;2.50;;;;;;;34.66;43.21;99053.50;5029088;28;20028;-65
2023/09/28 08:24:20;;;;;;;3.00;2.17;;;;;;;36.29;41.09;99044.00;5019833;28;20018;-66
2023/09/28 08:26:46;;;;;;;3.83;2.22;;;;;;;36.78;39.84;99049.03;5024002;28;20036;-65
2023/09/28 08:29:12;;;;;;;4.78;2.35;;;;;;;37.13;39.73;99053.75;5031571;28;20036;-66
2023/09/28 08:31:37;;;;;;;3.53;2.15;;;;;;;38.82;36.65;99054.25;5029803;28;20032;-65
2023/09/28 08:34:03;;;;;;;3.10;2.20;;;;;;;36.54;38.57;99046.50;5020797;28;20380;-65
2023/09/28 08:36:30;;;;;;;5.07;2.75;;;;;;;34.41;38.75;99045.16;5027532;28;20077;-66
2023/09/28 08:38:56;;;;;;;3.85;2.15;;;;;;;34.71;39.20;99056.06;5031849;28;20036;-66
2023/09/28 08:41:47;;;;;;;3.75;2.13;;;;;;;36.61;35.89;99058.78;5032394;28;20135;-65
2023/09/28 08:44:13;;;;;;;5.10;2.40;;;;;;;37.19;35.06;99066.34;5025135;28;20029;-65
2023/09/28 08:46:39;;;;;;;3.50;2.13;;;;;;;38.07;33.57;99070.22;5028630;28;20075;-57
2023/09/28 08:49:07;;;;;;;3.70;2.00;;;;;;;37.11;33.90;99070.25;5021782;28;20104;-57
2023/09/28 08:51:36;;;;;;;4.18;2.10;;;;;;;37.36;33.81;99070.66;5027702;28;20026;-57
2023/09/28 08:54:07;;;;;;;3.80;2.45;;;;;;;36.81;34.86;99055.94;5030185;28;20039;-57
2023/09/28 08:56:39;;;;;;;4.40;2.60;;;;;;;37.15;34.70;99056.19;5030608;28;20295;-57
2023/09/28 08:59:05;;;;;;;5.18;2.30;;;;;;;35.13;35.76;99052.81;5021508;28;20021;-57
2023/09/28 09:01:32;;;;;;;4.60;2.40;;;;;;;36.54;35.99;99043.69;5024911;28;20029;-57
2023/09/28 09:03:58;;;;;;;3.80;2.30;;;;;;;37.66;34.42;99044.59;5024606;28;20025;-57
2023/09/28 09:06:25;;;;;;;5.00;2.47;;;;;;;37.85;33.35;99044.47;5021893;28;20088;-57
2023/09/28 09:08:53;;;;;;;6.68;2.40;;;;;;;36.36;34.95;99058.22;5028807;28;20175;-57
2023/09/28 09:11:19;;;;;;;6.53;2.37;;;;;;;37.24;34.63;99051.94;5025455;28;20469;-57
2023/09/28 09:13:51;;;;;;;5.88;2.28;;;;;;;36.90;34.50;99053.69;5045892;23;20128;-75
2023/09/28 09:16:17;;;;;;;8.55;2.40;;;;;;;38.28;33.41;99049.94;5013062;28;20029;-74
2023/09/28 09:18:43;;;;;;;3.28;2.00;;;;;;;37.34;34.42;99053.31;5015708;28;20071;-75
2023/09/28 09:21:08;;;;;;;5.05;2.42;;;;;;;37.42;34.49;99046.59;5011572;28;20433;-75
2023/09/28 09:23:36;;;;;;;6.00;2.47;;;;;;;37.68;34.38;99056.34;4997691;28;20068;-75
2023/09/28 09:26:02;;;;;;;5.37;2.17;;;;;;;37.53;34.83;99046.81;5001615;28;20068;-75
2023/09/28 09:28:37;;;;;;;4.28;2.20;;;;;;;38.47;33.96;99049.81;4998010;28;20033;-75
2023/09/28 09:31:02;;;;;;;4.47;2.42;;;;;;;38.80;33.35;99040.53;4995037;28;20027;-75
2023/09/28 09:33:28;;;;;;;4.55;2.40;;;;;;;40.09;32.49;99046.53;5004885;28;20591;-74
2023/09/28 09:35:53;;;;;;;4.72;2.25;;;;;;;39.23;33.46;99052.28;5008413;28;20029;-75
2023/09/28 09:38:22;;;;;;;4.88;2.28;;;;;;;38.64;34.62;99047.59;5004964;28;20380;-74
2023/09/28 09:40:57;;;;;;;5.78;2.35;;;;;;;38.21;33.80;99045.03;5007519;28;20033;-75
2023/09/28 09:43:23;;;;;;;3.92;1.98;;;;;;;41.67;30.68;99035.63;5031165;28;20052;-77
2023/09/28 09:45:48;;;;;;;6.47;2.47;;;;;;;40.80;31.58;99039.56;5020489;28;20053;-77
2023/09/28 09:48:14;;;;;;;5.57;2.07;;;;;;;39.40;32.93;99033.03;5027757;28;20025;-75
2023/09/28 09:50:39;;;;;;;4.07;2.30;;;;;;;41.22;30.68;99044.53;5025245;28;20089;-75
2023/09/28 09:53:04;;;;;;;5.03;2.00;;;;;;;41.18;31.23;99035.19;5029068;28;20017;-76
2023/09/28 09:55:31;;;;;;;4.47;2.38;;;;;;;40.59;31.23;99034.63;5025961;28;20022;-77
2023/09/28 09:58:01;;;;;;;4.50;2.05;;;;;;;40.55;32.05;99037.44;5028966;28;20019;-78
2023/09/28 10:00:31;;;;;;;3.97;2.28;;;;;;;41.24;30.52;99041.28;5035269;28;20022;-77
2023/09/28 10:02:58;;;;;;;3.40;2.20;;;;;;;41.52;30.48;99046.19;5022003;28;20054;-77
2023/09/28 10:05:26;;;;;;;4.85;2.25;;;;;;;41.05;29.87;99048.94;5022568;28;20037;-76
2023/09/28 10:07:53;;;;;;;3.85;2.20;;;;;;;40.89;30.64;99042.81;5010066;28;20323;-77
2023/09/28 10:10:19;;;;;;;4.43;2.50;;;;;;;37.79;32.38;99040.34;5003633;28;20105;-76
2023/09/28 10:12:47;;;;;;;5.57;1.90;;;;;;;39.29;31.81;99038.59;5003812;28;20541;-76
2023/09/28 10:15:14;;;;;;;3.05;2.30;;;;;;;40.95;30.41;99030.69;5002084;28;20068;-76
2023/09/28 10:17:40;;;;;;;6.57;2.08;;;;;;;38.26;33.29;99041.84;5006967;28;20038;-76
2023/09/28 10:20:07;;;;;;;3.60;1.80;;;;;;;40.79;31.51;99033.06;5003059;28;20026;-76
2023/09/28 10:22:32;;;;;;;3.03;1.70;;;;;;;40.34;30.83;99038.16;4998991;28;20509;-74
2023/09/28 10:24:57;;;;;;;2.88;2.08;;;;;;;41.25;30.10;99040.06;5003670;28;20136;-74
2023/09/28 10:27:23;;;;;;;2.83;2.15;;;;;;;40.84;30.24;99046.84;5013729;28;20079;-75
2023/09/28 10:29:48;;;;;;;2.65;1.73;;;;;;;38.52;32.93;99035.34;5003747;28;20041;-75
2023/09/28 10:32:29;;;;;;;3.30;2.10;;;;;;;39.47;31.71;99035.94;5011184;28;20493;-75
2023/09/28 10:35:24;;;;;;;4.20;1.77;;;;;;;40.40;33.04;99018.72;5004648;28;20604;-74
2023/09/28 10:38:15;;;;;;;5.72;2.15;;;;;;;40.74;31.53;99028.63;5009085;28;20501;-74
2023/09/28 10:40:41;;;;;;;3.35;2.00;;;;;;;41.37;30.51;99014.94;5003635;28;20026;-74
2023/09/28 10:43:10;;;;;;;4.90;1.98;;;;;;;42.05;30.42;99011.19;5003218;28;20552;-77
2023/09/28 10:45:37;;;;;;;2.40;1.98;;;;;;;42.42;30.09;99013.53;5009464;28;20037;-75
2023/09/28 10:48:05;;;;;;;3.30;1.90;;;;;;;43.70;28.81;99016.72;5004924;28;20110;-75
2023/09/28 10:50:30;;;;;;;;;;;;;;;42.91;29.60;99013.69;5001451;28;20368;-75
2023/09/28 10:52:56;;;;;;;2.97;1.83;;;;;;;43.61;28.29;99012.78;5013327;28;20004;-77
2023/09/28 10:55:21;;;;;;;4.55;1.83;;;;;;;43.03;29.02;99012.38;5000927;28;20033;-75
2023/09/28 10:57:46;;;;;;;2.60;1.60;;;;;;;41.03;29.87;99007.97;5008064;28;20524;-74
2023/09/28 11:00:12;;;;;;;6.97;2.08;;;;;;;41.85;29.40;99005.16;5003428;28;20273;-74
2023/09/28 11:02:38;;;;;;;2.60;1.90;;;;;;;40.73;29.76;99001.44;5002212;28;20363;-74
2023/09/28 11:05:07;;;;;;;3.45;1.60;;;;;;;40.88;30.79;98995.81;5009453;28;20021;-74
2023/09/28 11:07:32;;;;;;;3.95;1.85;;;;;;;39.23;30.85;99006.19;5005265;28;20116;-74
2023/09/28 11:09:58;;;;;;;3.77;1.97;;;;;;;39.94;31.75;98999.47;4998956;28;20117;-73
2023/09/28 11:12:23;;;;;;;3.38;1.90;;;;;;;40.47;31.77;98990.41;5008088;28;20281;-74
2023/09/28 11:14:51;;;;;;;4.28;2.13;;;;;;;40.88;29.90;98998.66;5003749;28;20111;-74
2023/09/28 11:17:16;;;;;;;3.72;1.90;;;;;;;41.90;28.93;98999.06;5003972;28;20030;-74
2023/09/28 11:19:42;;;;;;;6.15;1.92;;;;;;;42.74;28.95;98994.66;5000822;28;20129;-74
2023/09/28 11:22:08;;;;;;;1.95;1.58;;;;;;;40.81;28.11;98999.44;4995661;28;20113;-75
2023/09/28 11:24:33;;;;;;;4.95;2.17;;;;;;;40.85;28.92;98996.59;5002307;28;20105;-74
2023/09/28 11:26:59;;;;;;;3.55;1.75;;;;;;;40.68;29.69;98999.00;5008387;28;20040;-74